sensor_id;sensor_type;location;lat;lon;timestamp;P1;durP1;ratioP1;P2;durP2;ratioP2
49396;SDS011;35615;41.410;2.194;2022-08-20T00:01:59;7.25;;;2.75;;
49396;SDS011;35615;41.410;2.194;2022-08-20T00:04:26;5.93;;;2.90;;
49396;SDS011;35615;41.410;2.194;2022-08-20T00:06:53;5.10;;;2.47;;
49396;SDS011;35615;41.410;2.194;2022-08-20T00:09:21;7.47;;;2.60;;
49396;SDS011;35615;41.410;2.194;2022-08-20T00:11:48;7.30;;;2.40;;
49396;SDS011;35615;41.410;2.194;2022-08-20T00:14:15;9.93;;;2.92;;
49396;SDS011;35615;41.410;2.194;2022-08-20T00:16:42;4.85;;;2.50;;
49396;SDS011;35615;41.410;2.194;2022-08-20T00:19:09;3.08;;;2.20;;
49396;SDS011;35615;41.410;2.194;2022-08-20T00:21:36;6.15;;;2.65;;
49396;SDS011;35615;41.410;2.194;2022-08-20T00:24:04;4.80;;;2.45;;
49396;SDS011;35615;41.410;2.194;2022-08-20T00:26:31;2.95;;;2.60;;
49396;SDS011;35615;41.410;2.194;2022-08-20T00:28:58;2.72;;;2.17;;
49396;SDS011;35615;41.410;2.194;2022-08-20T00:31:26;4.72;;;2.65;;
49396;SDS011;35615;41.410;2.194;2022-08-20T00:33:53;8.88;;;2.70;;
49396;SDS011;35615;41.410;2.194;2022-08-20T00:36:21;6.40;;;3.15;;
49396;SDS011;35615;41.410;2.194;2022-08-20T00:38:58;3.20;;;2.70;;
49396;SDS011;35615;41.410;2.194;2022-08-20T00:41:26;4.30;;;3.20;;
49396;SDS011;35615;41.410;2.194;2022-08-20T00:46:31;6.13;;;3.22;;
49396;SDS011;35615;41.410;2.194;2022-08-20T00:48:59;3.45;;;2.78;;
49396;SDS011;35615;41.410;2.194;2022-08-20T00:51:39;6.60;;;2.83;;
49396;SDS011;35615;41.410;2.194;2022-08-20T00:56:50;5.88;;;3.17;;
49396;SDS011;35615;41.410;2.194;2022-08-20T01:02:13;5.05;;;3.22;;
49396;SDS011;35615;41.410;2.194;2022-08-20T01:04:43;7.95;;;3.08;;
49396;SDS011;35615;41.410;2.194;2022-08-20T01:07:29;6.78;;;3.00;;
49396;SDS011;35615;41.410;2.194;2022-08-20T01:10:05;6.63;;;3.90;;
49396;SDS011;35615;41.410;2.194;2022-08-20T01:12:33;5.88;;;3.55;;
49396;SDS011;35615;41.410;2.194;2022-08-20T01:15:02;6.60;;;3.88;;
49396;SDS011;35615;41.410;2.194;2022-08-20T01:17:33;7.10;;;3.22;;
49396;SDS011;35615;41.410;2.194;2022-08-20T01:20:19;4.90;;;3.40;;
49396;SDS011;35615;41.410;2.194;2022-08-20T01:25:52;8.95;;;3.15;;
49396;SDS011;35615;41.410;2.194;2022-08-20T01:28:24;4.50;;;3.17;;
49396;SDS011;35615;41.410;2.194;2022-08-20T01:31:00;6.15;;;3.30;;
49396;SDS011;35615;41.410;2.194;2022-08-20T01:33:28;5.20;;;3.08;;
49396;SDS011;35615;41.410;2.194;2022-08-20T01:35:58;5.22;;;2.90;;
49396;SDS011;35615;41.410;2.194;2022-08-20T01:38:27;6.60;;;3.08;;
49396;SDS011;35615;41.410;2.194;2022-08-20T01:41:03;6.78;;;2.70;;
49396;SDS011;35615;41.410;2.194;2022-08-20T01:43:44;15.18;;;3.70;;
49396;SDS011;35615;41.410;2.194;2022-08-20T01:46:15;4.03;;;2.50;;
49396;SDS011;35615;41.410;2.194;2022-08-20T01:48:45;6.13;;;2.80;;
49396;SDS011;35615;41.410;2.194;2022-08-20T01:51:14;7.40;;;3.15;;
49396;SDS011;35615;41.410;2.194;2022-08-20T01:53:46;4.18;;;2.50;;
49396;SDS011;35615;41.410;2.194;2022-08-20T01:56:17;3.92;;;2.65;;
49396;SDS011;35615;41.410;2.194;2022-08-20T01:58:48;4.22;;;2.80;;
49396;SDS011;35615;41.410;2.194;2022-08-20T02:01:30;6.43;;;3.00;;
49396;SDS011;35615;41.410;2.194;2022-08-20T02:04:12;5.13;;;2.95;;
49396;SDS011;35615;41.410;2.194;2022-08-20T02:06:43;4.53;;;3.10;;
49396;SDS011;35615;41.410;2.194;2022-08-20T02:09:33;2.78;;;2.35;;
49396;SDS011;35615;41.410;2.194;2022-08-20T02:12:03;5.45;;;3.15;;
49396;SDS011;35615;41.410;2.194;2022-08-20T02:14:32;4.97;;;2.78;;
49396;SDS011;35615;41.410;2.194;2022-08-20T02:17:00;6.97;;;3.20;;
49396;SDS011;35615;41.410;2.194;2022-08-20T02:19:29;4.70;;;2.92;;
49396;SDS011;35615;41.410;2.194;2022-08-20T02:22:06;3.65;;;2.75;;
49396;SDS011;35615;41.410;2.194;2022-08-20T02:24:42;8.35;;;3.15;;
49396;SDS011;35615;41.410;2.194;2022-08-20T02:27:09;5.78;;;3.15;;
49396;SDS011;35615;41.410;2.194;2022-08-20T02:29:37;4.45;;;2.95;;
49396;SDS011;35615;41.410;2.194;2022-08-20T02:32:04;5.22;;;3.28;;
49396;SDS011;35615;41.410;2.194;2022-08-20T02:34:53;4.57;;;3.03;;
49396;SDS011;35615;41.410;2.194;2022-08-20T02:37:20;3.67;;;2.72;;
49396;SDS011;35615;41.410;2.194;2022-08-20T02:39:47;4.80;;;3.45;;
49396;SDS011;35615;41.410;2.194;2022-08-20T02:42:14;5.90;;;3.17;;
49396;SDS011;35615;41.410;2.194;2022-08-20T02:44:42;6.18;;;2.67;;
49396;SDS011;35615;41.410;2.194;2022-08-20T02:47:09;4.35;;;3.30;;
49396;SDS011;35615;41.410;2.194;2022-08-20T02:49:37;4.15;;;2.63;;
49396;SDS011;35615;41.410;2.194;2022-08-20T02:52:04;7.10;;;3.25;;
49396;SDS011;35615;41.410;2.194;2022-08-20T02:54:31;7.28;;;3.50;;
49396;SDS011;35615;41.410;2.194;2022-08-20T02:56:58;8.35;;;3.22;;
49396;SDS011;35615;41.410;2.194;2022-08-20T03:02:14;5.47;;;3.10;;
49396;SDS011;35615;41.410;2.194;2022-08-20T03:04:42;7.68;;;3.45;;
49396;SDS011;35615;41.410;2.194;2022-08-20T03:07:10;7.30;;;3.47;;
49396;SDS011;35615;41.410;2.194;2022-08-20T03:09:38;7.07;;;3.15;;
49396;SDS011;35615;41.410;2.194;2022-08-20T03:12:06;6.50;;;3.13;;
49396;SDS011;35615;41.410;2.194;2022-08-20T03:14:34;10.27;;;3.13;;
49396;SDS011;35615;41.410;2.194;2022-08-20T03:17:02;6.18;;;3.15;;
49396;SDS011;35615;41.410;2.194;2022-08-20T03:19:30;5.50;;;3.05;;
49396;SDS011;35615;41.410;2.194;2022-08-20T03:22:00;3.25;;;2.95;;
49396;SDS011;35615;41.410;2.194;2022-08-20T03:24:27;5.78;;;3.38;;
49396;SDS011;35615;41.410;2.194;2022-08-20T03:26:55;5.07;;;3.22;;
49396;SDS011;35615;41.410;2.194;2022-08-20T03:29:26;6.28;;;3.05;;
49396;SDS011;35615;41.410;2.194;2022-08-20T03:31:55;8.10;;;4.15;;
49396;SDS011;35615;41.410;2.194;2022-08-20T03:34:23;5.75;;;3.03;;
49396;SDS011;35615;41.410;2.194;2022-08-20T03:36:52;6.32;;;4.03;;
49396;SDS011;35615;41.410;2.194;2022-08-20T03:39:19;7.00;;;3.38;;
49396;SDS011;35615;41.410;2.194;2022-08-20T03:41:46;6.45;;;4.13;;
49396;SDS011;35615;41.410;2.194;2022-08-20T03:44:14;5.22;;;3.35;;
49396;SDS011;35615;41.410;2.194;2022-08-20T03:46:41;7.00;;;3.25;;
49396;SDS011;35615;41.410;2.194;2022-08-20T03:49:08;3.78;;;3.38;;
49396;SDS011;35615;41.410;2.194;2022-08-20T03:51:36;4.22;;;3.35;;
49396;SDS011;35615;41.410;2.194;2022-08-20T03:54:23;5.30;;;3.38;;
49396;SDS011;35615;41.410;2.194;2022-08-20T03:56:58;8.13;;;3.78;;
49396;SDS011;35615;41.410;2.194;2022-08-20T04:02:45;7.57;;;3.80;;
49396;SDS011;35615;41.410;2.194;2022-08-20T04:05:13;5.97;;;3.20;;
49396;SDS011;35615;41.410;2.194;2022-08-20T04:07:40;6.55;;;3.10;;
49396;SDS011;35615;41.410;2.194;2022-08-20T04:10:08;6.95;;;3.50;;
49396;SDS011;35615;41.410;2.194;2022-08-20T04:12:38;7.00;;;3.63;;
49396;SDS011;35615;41.410;2.194;2022-08-20T04:15:17;7.07;;;3.20;;
49396;SDS011;35615;41.410;2.194;2022-08-20T04:17:47;5.90;;;3.20;;
49396;SDS011;35615;41.410;2.194;2022-08-20T04:20:17;7.97;;;3.08;;
49396;SDS011;35615;41.410;2.194;2022-08-20T04:22:49;6.07;;;2.90;;
49396;SDS011;35615;41.410;2.194;2022-08-20T04:25:28;5.65;;;3.10;;
49396;SDS011;35615;41.410;2.194;2022-08-20T04:28:02;5.93;;;3.33;;
49396;SDS011;35615;41.410;2.194;2022-08-20T04:30:31;6.45;;;3.42;;
49396;SDS011;35615;41.410;2.194;2022-08-20T04:32:59;3.20;;;2.90;;
49396;SDS011;35615;41.410;2.194;2022-08-20T04:35:27;6.75;;;3.42;;
49396;SDS011;35615;41.410;2.194;2022-08-20T04:37:59;9.48;;;3.20;;
49396;SDS011;35615;41.410;2.194;2022-08-20T04:40:29;10.07;;;2.92;;
49396;SDS011;35615;41.410;2.194;2022-08-20T04:43:15;8.73;;;3.47;;
49396;SDS011;35615;41.410;2.194;2022-08-20T04:45:42;6.82;;;3.33;;
49396;SDS011;35615;41.410;2.194;2022-08-20T04:48:10;4.80;;;3.33;;
49396;SDS011;35615;41.410;2.194;2022-08-20T04:50:41;4.85;;;3.10;;
49396;SDS011;35615;41.410;2.194;2022-08-20T04:53:10;4.38;;;3.05;;
49396;SDS011;35615;41.410;2.194;2022-08-20T04:55:51;4.25;;;2.88;;
49396;SDS011;35615;41.410;2.194;2022-08-20T04:58:24;6.63;;;3.03;;
49396;SDS011;35615;41.410;2.194;2022-08-20T05:00:56;3.97;;;3.03;;
49396;SDS011;35615;41.410;2.194;2022-08-20T05:03:27;5.30;;;2.58;;
49396;SDS011;35615;41.410;2.194;2022-08-20T05:05:54;3.22;;;2.40;;
49396;SDS011;35615;41.410;2.194;2022-08-20T05:08:22;4.90;;;2.78;;
49396;SDS011;35615;41.410;2.194;2022-08-20T05:10:52;7.68;;;2.85;;
49396;SDS011;35615;41.410;2.194;2022-08-20T05:13:40;7.18;;;3.28;;
49396;SDS011;35615;41.410;2.194;2022-08-20T05:16:08;4.07;;;2.70;;
49396;SDS011;35615;41.410;2.194;2022-08-20T05:18:35;3.35;;;2.45;;
49396;SDS011;35615;41.410;2.194;2022-08-20T05:21:05;11.98;;;2.95;;
49396;SDS011;35615;41.410;2.194;2022-08-20T05:23:36;8.48;;;2.55;;
49396;SDS011;35615;41.410;2.194;2022-08-20T05:26:09;6.43;;;3.00;;
49396;SDS011;35615;41.410;2.194;2022-08-20T05:28:39;4.53;;;2.80;;
49396;SDS011;35615;41.410;2.194;2022-08-20T05:31:24;4.65;;;2.70;;
49396;SDS011;35615;41.410;2.194;2022-08-20T05:34:03;5.13;;;2.35;;
49396;SDS011;35615;41.410;2.194;2022-08-20T05:36:37;8.65;;;2.85;;
49396;SDS011;35615;41.410;2.194;2022-08-20T05:39:09;9.70;;;2.75;;
49396;SDS011;35615;41.410;2.194;2022-08-20T05:41:37;4.95;;;3.17;;
49396;SDS011;35615;41.410;2.194;2022-08-20T05:44:06;3.95;;;2.85;;
49396;SDS011;35615;41.410;2.194;2022-08-20T05:46:39;5.82;;;2.80;;
49396;SDS011;35615;41.410;2.194;2022-08-20T05:49:10;6.18;;;2.80;;
49396;SDS011;35615;41.410;2.194;2022-08-20T05:51:39;5.72;;;3.10;;
49396;SDS011;35615;41.410;2.194;2022-08-20T05:54:07;5.80;;;3.33;;
49396;SDS011;35615;41.410;2.194;2022-08-20T05:56:35;3.53;;;2.70;;
49396;SDS011;35615;41.410;2.194;2022-08-20T05:59:03;7.75;;;2.92;;
49396;SDS011;35615;41.410;2.194;2022-08-20T06:01:32;9.20;;;3.28;;
49396;SDS011;35615;41.410;2.194;2022-08-20T06:04:01;4.15;;;2.92;;
49396;SDS011;35615;41.410;2.194;2022-08-20T06:06:48;8.25;;;3.42;;
49396;SDS011;35615;41.410;2.194;2022-08-20T06:09:18;7.35;;;2.78;;
49396;SDS011;35615;41.410;2.194;2022-08-20T06:11:58;9.00;;;3.08;;
49396;SDS011;35615;41.410;2.194;2022-08-20T06:14:26;6.13;;;2.88;;
49396;SDS011;35615;41.410;2.194;2022-08-20T06:16:54;9.13;;;3.38;;
49396;SDS011;35615;41.410;2.194;2022-08-20T06:19:32;8.13;;;3.38;;
49396;SDS011;35615;41.410;2.194;2022-08-20T06:22:00;11.85;;;3.40;;
49396;SDS011;35615;41.410;2.194;2022-08-20T06:24:46;4.28;;;3.25;;
49396;SDS011;35615;41.410;2.194;2022-08-20T06:27:14;4.05;;;2.60;;
49396;SDS011;35615;41.410;2.194;2022-08-20T06:29:41;11.05;;;3.40;;
49396;SDS011;35615;41.410;2.194;2022-08-20T06:32:09;9.73;;;3.42;;
49396;SDS011;35615;41.410;2.194;2022-08-20T06:34:36;7.28;;;2.83;;
49396;SDS011;35615;41.410;2.194;2022-08-20T06:37:20;6.60;;;3.10;;
49396;SDS011;35615;41.410;2.194;2022-08-20T06:39:59;11.00;;;3.30;;
49396;SDS011;35615;41.410;2.194;2022-08-20T06:42:30;3.97;;;2.58;;
49396;SDS011;35615;41.410;2.194;2022-08-20T06:44:57;3.47;;;2.60;;
49396;SDS011;35615;41.410;2.194;2022-08-20T06:47:26;8.38;;;3.22;;
49396;SDS011;35615;41.410;2.194;2022-08-20T06:49:53;9.63;;;3.47;;
49396;SDS011;35615;41.410;2.194;2022-08-20T06:52:20;10.20;;;3.22;;
49396;SDS011;35615;41.410;2.194;2022-08-20T06:55:09;7.47;;;2.90;;
49396;SDS011;35615;41.410;2.194;2022-08-20T06:57:37;6.95;;;2.83;;
49396;SDS011;35615;41.410;2.194;2022-08-20T07:00:10;3.88;;;2.67;;
49396;SDS011;35615;41.410;2.194;2022-08-20T07:02:44;9.88;;;2.88;;
49396;SDS011;35615;41.410;2.194;2022-08-20T07:05:13;5.15;;;3.22;;
49396;SDS011;35615;41.410;2.194;2022-08-20T07:07:45;4.88;;;2.83;;
49396;SDS011;35615;41.410;2.194;2022-08-20T07:10:15;11.18;;;2.78;;
49396;SDS011;35615;41.410;2.194;2022-08-20T07:12:44;6.43;;;2.50;;
49396;SDS011;35615;41.410;2.194;2022-08-20T07:15:12;3.58;;;2.55;;
49396;SDS011;35615;41.410;2.194;2022-08-20T07:17:40;5.82;;;3.40;;
49396;SDS011;35615;41.410;2.194;2022-08-20T07:20:12;5.05;;;2.97;;
49396;SDS011;35615;41.410;2.194;2022-08-20T07:22:41;5.25;;;3.08;;
49396;SDS011;35615;41.410;2.194;2022-08-20T07:25:11;5.47;;;3.72;;
49396;SDS011;35615;41.410;2.194;2022-08-20T07:27:40;11.10;;;2.60;;
49396;SDS011;35615;41.410;2.194;2022-08-20T07:30:10;5.68;;;3.15;;
49396;SDS011;35615;41.410;2.194;2022-08-20T07:33:19;4.50;;;2.85;;
49396;SDS011;35615;41.410;2.194;2022-08-20T07:35:50;10.20;;;3.10;;
49396;SDS011;35615;41.410;2.194;2022-08-20T07:38:18;5.15;;;3.03;;
49396;SDS011;35615;41.410;2.194;2022-08-20T07:43:19;6.80;;;3.22;;
49396;SDS011;35615;41.410;2.194;2022-08-20T07:45:49;9.32;;;2.95;;
49396;SDS011;35615;41.410;2.194;2022-08-20T07:48:18;5.60;;;3.03;;
49396;SDS011;35615;41.410;2.194;2022-08-20T07:51:01;5.68;;;3.03;;
49396;SDS011;35615;41.410;2.194;2022-08-20T07:53:31;6.90;;;3.03;;
49396;SDS011;35615;41.410;2.194;2022-08-20T07:56:03;6.65;;;4.63;;
49396;SDS011;35615;41.410;2.194;2022-08-20T07:58:32;8.25;;;3.85;;
49396;SDS011;35615;41.410;2.194;2022-08-20T08:01:02;5.57;;;3.75;;
49396;SDS011;35615;41.410;2.194;2022-08-20T08:03:31;10.02;;;3.03;;
49396;SDS011;35615;41.410;2.194;2022-08-20T08:08:56;5.05;;;2.55;;
49396;SDS011;35615;41.410;2.194;2022-08-20T08:11:46;8.85;;;2.53;;
49396;SDS011;35615;41.410;2.194;2022-08-20T08:14:17;6.03;;;2.55;;
49396;SDS011;35615;41.410;2.194;2022-08-20T08:19:16;6.28;;;3.00;;
49396;SDS011;35615;41.410;2.194;2022-08-20T08:21:44;3.33;;;2.45;;
49396;SDS011;35615;41.410;2.194;2022-08-20T08:24:12;8.50;;;2.40;;
49396;SDS011;35615;41.410;2.194;2022-08-20T08:26:47;2.95;;;1.58;;
49396;SDS011;35615;41.410;2.194;2022-08-20T08:29:15;7.53;;;1.70;;
49396;SDS011;35615;41.410;2.194;2022-08-20T08:31:42;8.85;;;2.65;;
49396;SDS011;35615;41.410;2.194;2022-08-20T08:34:10;3.30;;;1.27;;
49396;SDS011;35615;41.410;2.194;2022-08-20T08:36:38;5.32;;;1.73;;
49396;SDS011;35615;41.410;2.194;2022-08-20T08:39:06;4.93;;;1.77;;
49396;SDS011;35615;41.410;2.194;2022-08-20T08:41:39;2.85;;;1.42;;
49396;SDS011;35615;41.410;2.194;2022-08-20T08:44:14;2.65;;;1.00;;
49396;SDS011;35615;41.410;2.194;2022-08-20T08:46:56;1.52;;;1.20;;
49396;SDS011;35615;41.410;2.194;2022-08-20T08:49:30;1.98;;;0.82;;
49396;SDS011;35615;41.410;2.194;2022-08-20T08:54:35;3.13;;;1.48;;
49396;SDS011;35615;41.410;2.194;2022-08-20T08:57:08;2.88;;;1.10;;
49396;SDS011;35615;41.410;2.194;2022-08-20T08:59:36;6.00;;;1.02;;
49396;SDS011;35615;41.410;2.194;2022-08-20T09:02:27;3.92;;;1.95;;
49396;SDS011;35615;41.410;2.194;2022-08-20T09:04:57;3.33;;;1.30;;
49396;SDS011;35615;41.410;2.194;2022-08-20T09:07:34;2.17;;;1.27;;
49396;SDS011;35615;41.410;2.194;2022-08-20T09:10:03;2.42;;;1.23;;
49396;SDS011;35615;41.410;2.194;2022-08-20T09:12:32;10.25;;;1.52;;
49396;SDS011;35615;41.410;2.194;2022-08-20T09:15:00;2.47;;;1.75;;
49396;SDS011;35615;41.410;2.194;2022-08-20T09:17:29;3.42;;;1.52;;
49396;SDS011;35615;41.410;2.194;2022-08-20T09:19:57;2.75;;;1.40;;
49396;SDS011;35615;41.410;2.194;2022-08-20T09:22:24;1.98;;;1.20;;
49396;SDS011;35615;41.410;2.194;2022-08-20T09:24:51;1.83;;;1.50;;
49396;SDS011;35615;41.410;2.194;2022-08-20T09:27:19;2.83;;;1.55;;
49396;SDS011;35615;41.410;2.194;2022-08-20T09:29:46;3.03;;;1.65;;
49396;SDS011;35615;41.410;2.194;2022-08-20T09:32:19;4.20;;;1.30;;
49396;SDS011;35615;41.410;2.194;2022-08-20T09:34:49;2.58;;;1.20;;
49396;SDS011;35615;41.410;2.194;2022-08-20T09:37:26;2.17;;;1.40;;
49396;SDS011;35615;41.410;2.194;2022-08-20T09:40:02;5.00;;;1.73;;
49396;SDS011;35615;41.410;2.194;2022-08-20T09:42:31;3.38;;;1.50;;
49396;SDS011;35615;41.410;2.194;2022-08-20T09:45:07;3.80;;;1.85;;
49396;SDS011;35615;41.410;2.194;2022-08-20T09:47:36;5.22;;;1.77;;
49396;SDS011;35615;41.410;2.194;2022-08-20T09:50:22;2.47;;;1.65;;
49396;SDS011;35615;41.410;2.194;2022-08-20T09:52:51;3.83;;;1.65;;
49396;SDS011;35615;41.410;2.194;2022-08-20T09:55:42;6.30;;;1.73;;
49396;SDS011;35615;41.410;2.194;2022-08-20T09:58:16;1.88;;;1.73;;
49396;SDS011;35615;41.410;2.194;2022-08-20T10:01:07;3.42;;;1.52;;
49396;SDS011;35615;41.410;2.194;2022-08-20T10:03:41;6.15;;;1.80;;
49396;SDS011;35615;41.410;2.194;2022-08-20T10:06:09;1.98;;;1.40;;
49396;SDS011;35615;41.410;2.194;2022-08-20T10:08:37;3.92;;;1.85;;
49396;SDS011;35615;41.410;2.194;2022-08-20T10:11:04;4.35;;;2.10;;
49396;SDS011;35615;41.410;2.194;2022-08-20T10:13:31;4.53;;;1.75;;
49396;SDS011;35615;41.410;2.194;2022-08-20T10:15:59;5.63;;;2.20;;
49396;SDS011;35615;41.410;2.194;2022-08-20T10:18:26;5.70;;;1.90;;
49396;SDS011;35615;41.410;2.194;2022-08-20T10:20:54;6.20;;;1.75;;
49396;SDS011;35615;41.410;2.194;2022-08-20T10:23:21;5.47;;;1.50;;
49396;SDS011;35615;41.410;2.194;2022-08-20T10:25:49;3.45;;;1.55;;
49396;SDS011;35615;41.410;2.194;2022-08-20T10:28:16;5.40;;;1.48;;
49396;SDS011;35615;41.410;2.194;2022-08-20T10:30:43;4.55;;;1.80;;
49396;SDS011;35615;41.410;2.194;2022-08-20T10:33:10;7.95;;;1.50;;
49396;SDS011;35615;41.410;2.194;2022-08-20T10:35:40;5.55;;;1.73;;
49396;SDS011;35615;41.410;2.194;2022-08-20T10:38:07;5.40;;;2.03;;
49396;SDS011;35615;41.410;2.194;2022-08-20T10:40:35;1.58;;;1.48;;
49396;SDS011;35615;41.410;2.194;2022-08-20T10:43:02;4.30;;;1.33;;
49396;SDS011;35615;41.410;2.194;2022-08-20T10:45:30;6.50;;;1.65;;
49396;SDS011;35615;41.410;2.194;2022-08-20T10:47:58;8.77;;;1.80;;
49396;SDS011;35615;41.410;2.194;2022-08-20T10:50:26;2.88;;;1.67;;
49396;SDS011;35615;41.410;2.194;2022-08-20T10:52:56;3.65;;;1.63;;
49396;SDS011;35615;41.410;2.194;2022-08-20T10:55:23;2.85;;;1.60;;
49396;SDS011;35615;41.410;2.194;2022-08-20T10:57:51;3.13;;;1.98;;
49396;SDS011;35615;41.410;2.194;2022-08-20T11:00:18;4.30;;;1.67;;
49396;SDS011;35615;41.410;2.194;2022-08-20T11:02:45;1.83;;;1.52;;
49396;SDS011;35615;41.410;2.194;2022-08-20T11:05:13;7.35;;;1.88;;
49396;SDS011;35615;41.410;2.194;2022-08-20T11:07:41;2.83;;;1.60;;
49396;SDS011;35615;41.410;2.194;2022-08-20T11:10:26;2.47;;;1.40;;
49396;SDS011;35615;41.410;2.194;2022-08-20T11:12:55;3.72;;;1.80;;
49396;SDS011;35615;41.410;2.194;2022-08-20T11:15:22;3.30;;;1.58;;
49396;SDS011;35615;41.410;2.194;2022-08-20T11:17:49;4.53;;;2.13;;
49396;SDS011;35615;41.410;2.194;2022-08-20T11:20:17;4.15;;;1.75;;
49396;SDS011;35615;41.410;2.194;2022-08-20T11:22:46;7.75;;;1.80;;
49396;SDS011;35615;41.410;2.194;2022-08-20T11:25:14;6.45;;;2.10;;
49396;SDS011;35615;41.410;2.194;2022-08-20T11:27:42;7.78;;;1.55;;
49396;SDS011;35615;41.410;2.194;2022-08-20T11:30:16;2.92;;;1.90;;
49396;SDS011;35615;41.410;2.194;2022-08-20T11:32:46;7.97;;;1.95;;
49396;SDS011;35615;41.410;2.194;2022-08-20T11:35:17;3.67;;;2.05;;
49396;SDS011;35615;41.410;2.194;2022-08-20T11:38:06;6.45;;;1.92;;
49396;SDS011;35615;41.410;2.194;2022-08-20T11:40:33;5.38;;;2.05;;
49396;SDS011;35615;41.410;2.194;2022-08-20T11:43:01;3.45;;;1.60;;
49396;SDS011;35615;41.410;2.194;2022-08-20T11:45:44;4.30;;;1.75;;
49396;SDS011;35615;41.410;2.194;2022-08-20T11:48:17;3.60;;;1.83;;
49396;SDS011;35615;41.410;2.194;2022-08-20T11:50:44;3.00;;;1.50;;
49396;SDS011;35615;41.410;2.194;2022-08-20T11:53:16;2.88;;;1.85;;
49396;SDS011;35615;41.410;2.194;2022-08-20T11:55:44;9.90;;;1.88;;
49396;SDS011;35615;41.410;2.194;2022-08-20T11:58:22;2.00;;;1.80;;
49396;SDS011;35615;41.410;2.194;2022-08-20T12:00:49;1.95;;;1.67;;
49396;SDS011;35615;41.410;2.194;2022-08-20T12:03:16;5.28;;;1.58;;
49396;SDS011;35615;41.410;2.194;2022-08-20T12:05:49;3.67;;;1.60;;
49396;SDS011;35615;41.410;2.194;2022-08-20T12:08:17;2.42;;;1.58;;
49396;SDS011;35615;41.410;2.194;2022-08-20T12:10:55;3.33;;;1.83;;
49396;SDS011;35615;41.410;2.194;2022-08-20T12:13:25;4.15;;;1.92;;
49396;SDS011;35615;41.410;2.194;2022-08-20T12:16:15;1.88;;;1.40;;
49396;SDS011;35615;41.410;2.194;2022-08-20T12:18:46;5.57;;;1.60;;
49396;SDS011;35615;41.410;2.194;2022-08-20T12:21:17;2.13;;;1.08;;
49396;SDS011;35615;41.410;2.194;2022-08-20T12:23:45;2.78;;;1.73;;
49396;SDS011;35615;41.410;2.194;2022-08-20T12:26:12;3.17;;;1.88;;
49396;SDS011;35615;41.410;2.194;2022-08-20T12:28:43;5.28;;;1.80;;
49396;SDS011;35615;41.410;2.194;2022-08-20T12:31:10;3.17;;;1.52;;
49396;SDS011;35615;41.410;2.194;2022-08-20T12:33:37;2.10;;;1.58;;
49396;SDS011;35615;41.410;2.194;2022-08-20T12:36:04;4.25;;;1.30;;
49396;SDS011;35615;41.410;2.194;2022-08-20T12:38:32;1.60;;;1.50;;
49396;SDS011;35615;41.410;2.194;2022-08-20T12:40:59;3.47;;;1.60;;
49396;SDS011;35615;41.410;2.194;2022-08-20T12:43:26;6.32;;;1.85;;
49396;SDS011;35615;41.410;2.194;2022-08-20T12:45:54;7.20;;;1.50;;
49396;SDS011;35615;41.410;2.194;2022-08-20T12:48:21;1.88;;;1.33;;
49396;SDS011;35615;41.410;2.194;2022-08-20T12:50:48;2.78;;;1.50;;
49396;SDS011;35615;41.410;2.194;2022-08-20T12:53:15;2.63;;;1.77;;
49396;SDS011;35615;41.410;2.194;2022-08-20T12:55:43;3.97;;;2.38;;
49396;SDS011;35615;41.410;2.194;2022-08-20T12:58:11;6.35;;;1.80;;
49396;SDS011;35615;41.410;2.194;2022-08-20T13:00:39;3.60;;;1.67;;
49396;SDS011;35615;41.410;2.194;2022-08-20T13:03:15;4.90;;;1.70;;
49396;SDS011;35615;41.410;2.194;2022-08-20T13:05:43;2.95;;;1.60;;
49396;SDS011;35615;41.410;2.194;2022-08-20T13:08:10;3.92;;;1.92;;
49396;SDS011;35615;41.410;2.194;2022-08-20T13:10:39;1.98;;;1.60;;
49396;SDS011;35615;41.410;2.194;2022-08-20T13:15:39;4.18;;;1.80;;
49396;SDS011;35615;41.410;2.194;2022-08-20T13:18:07;2.15;;;1.95;;
49396;SDS011;35615;41.410;2.194;2022-08-20T13:20:36;6.13;;;2.08;;
49396;SDS011;35615;41.410;2.194;2022-08-20T13:23:04;3.72;;;2.03;;
49396;SDS011;35615;41.410;2.194;2022-08-20T13:25:31;4.20;;;1.90;;
49396;SDS011;35615;41.410;2.194;2022-08-20T13:28:00;2.33;;;2.15;;
49396;SDS011;35615;41.410;2.194;2022-08-20T13:30:31;2.10;;;1.80;;
49396;SDS011;35615;41.410;2.194;2022-08-20T13:33:00;1.95;;;1.85;;
49396;SDS011;35615;41.410;2.194;2022-08-20T13:35:27;9.13;;;2.58;;
49396;SDS011;35615;41.410;2.194;2022-08-20T13:37:55;3.22;;;2.28;;
49396;SDS011;35615;41.410;2.194;2022-08-20T13:40:23;3.83;;;2.20;;
49396;SDS011;35615;41.410;2.194;2022-08-20T13:42:51;4.03;;;2.00;;
49396;SDS011;35615;41.410;2.194;2022-08-20T13:45:18;2.50;;;1.70;;
49396;SDS011;35615;41.410;2.194;2022-08-20T13:47:46;4.43;;;2.00;;
49396;SDS011;35615;41.410;2.194;2022-08-20T13:50:19;3.67;;;2.20;;
49396;SDS011;35615;41.410;2.194;2022-08-20T13:52:49;6.10;;;2.00;;
49396;SDS011;35615;41.410;2.194;2022-08-20T13:55:18;3.50;;;2.15;;
49396;SDS011;35615;41.410;2.194;2022-08-20T13:57:48;3.58;;;2.03;;
49396;SDS011;35615;41.410;2.194;2022-08-20T14:00:20;3.83;;;2.08;;
49396;SDS011;35615;41.410;2.194;2022-08-20T14:03:01;3.03;;;1.63;;
49396;SDS011;35615;41.410;2.194;2022-08-20T14:05:30;5.78;;;1.70;;
49396;SDS011;35615;41.410;2.194;2022-08-20T14:08:10;3.33;;;1.98;;
49396;SDS011;35615;41.410;2.194;2022-08-20T14:10:43;4.50;;;1.90;;
49396;SDS011;35615;41.410;2.194;2022-08-20T14:13:14;5.63;;;2.00;;
49396;SDS011;35615;41.410;2.194;2022-08-20T14:15:41;3.42;;;2.13;;
49396;SDS011;35615;41.410;2.194;2022-08-20T14:18:11;2.10;;;1.70;;
49396;SDS011;35615;41.410;2.194;2022-08-20T14:20:40;5.32;;;1.88;;
49396;SDS011;35615;41.410;2.194;2022-08-20T14:23:11;3.15;;;1.75;;
49396;SDS011;35615;41.410;2.194;2022-08-20T14:25:38;2.33;;;2.13;;
49396;SDS011;35615;41.410;2.194;2022-08-20T14:28:10;3.08;;;2.00;;
49396;SDS011;35615;41.410;2.194;2022-08-20T14:30:43;6.65;;;2.60;;
49396;SDS011;35615;41.410;2.194;2022-08-20T14:33:19;5.05;;;2.55;;
49396;SDS011;35615;41.410;2.194;2022-08-20T14:35:46;2.90;;;1.75;;
49396;SDS011;35615;41.410;2.194;2022-08-20T14:38:14;4.13;;;1.85;;
49396;SDS011;35615;41.410;2.194;2022-08-20T14:40:41;2.83;;;1.90;;
49396;SDS011;35615;41.410;2.194;2022-08-20T14:43:08;3.15;;;1.58;;
49396;SDS011;35615;41.410;2.194;2022-08-20T14:45:35;1.92;;;1.13;;
49396;SDS011;35615;41.410;2.194;2022-08-20T14:48:04;3.65;;;1.52;;
49396;SDS011;35615;41.410;2.194;2022-08-20T14:50:33;3.80;;;1.50;;
49396;SDS011;35615;41.410;2.194;2022-08-20T14:53:02;4.55;;;1.92;;
49396;SDS011;35615;41.410;2.194;2022-08-20T14:55:32;2.75;;;1.50;;
49396;SDS011;35615;41.410;2.194;2022-08-20T14:58:08;4.25;;;1.55;;
49396;SDS011;35615;41.410;2.194;2022-08-20T15:00:37;2.13;;;1.40;;
49396;SDS011;35615;41.410;2.194;2022-08-20T15:03:04;1.85;;;1.30;;
49396;SDS011;35615;41.410;2.194;2022-08-20T15:05:33;4.15;;;1.50;;
49396;SDS011;35615;41.410;2.194;2022-08-20T15:08:05;1.80;;;1.47;;
49396;SDS011;35615;41.410;2.194;2022-08-20T15:10:39;3.15;;;1.50;;
49396;SDS011;35615;41.410;2.194;2022-08-20T15:13:10;5.47;;;1.50;;
49396;SDS011;35615;41.410;2.194;2022-08-20T15:15:37;4.45;;;1.40;;
49396;SDS011;35615;41.410;2.194;2022-08-20T15:18:06;6.00;;;1.55;;
49396;SDS011;35615;41.410;2.194;2022-08-20T15:20:34;6.60;;;1.30;;
49396;SDS011;35615;41.410;2.194;2022-08-20T15:23:03;2.88;;;1.80;;
49396;SDS011;35615;41.410;2.194;2022-08-20T15:25:32;4.60;;;1.58;;
49396;SDS011;35615;41.410;2.194;2022-08-20T15:28:03;1.60;;;1.20;;
49396;SDS011;35615;41.410;2.194;2022-08-20T15:30:32;1.50;;;1.17;;
49396;SDS011;35615;41.410;2.194;2022-08-20T15:32:59;1.38;;;1.20;;
49396;SDS011;35615;41.410;2.194;2022-08-20T15:35:27;3.42;;;1.30;;
49396;SDS011;35615;41.410;2.194;2022-08-20T15:37:55;1.90;;;1.42;;
49396;SDS011;35615;41.410;2.194;2022-08-20T15:40:25;3.05;;;1.45;;